23:24
Airports
History
Links
Donate
Help keep this website running!
PayPal
Bitcoin
Information on this page is community maintained and may be outdated or inaccurate and is intended for reference only or PC simulator navigating!
Always use approved charts for navigating.
LFDJ
Les Pujols
Les Pujols (LFDJ)
Les Pujols, Midi-Pyrénées, France (9100)
(C)
Lat/Lng:43° 5' 26.31" N / 1° 41' 52.86" E
43.090642 / 1.698018
Elevation:1114'ft 340mMSL
ID / ICAO:LFDJ
Runways:1
Longest:(09-27) 1,303.6m 4,277ft Asphalt
Controlled:Yes
Distance To
Airport ID:
Airport Radio Frequencies
PAMIERS FSS: 118.17
Approach: 125.17
Nearby VORs <50NM
Nearby NDBs
Nearby WeatherUpdated 05-02-12 04:00 GMT
Nearby weather at LFCG, Antichan located 30.6 nautical miles from LFDJ
Altimeter: 30.00
Visibility: 6.2 statute miles
Wind: 5 knots (160°)
Temp: 5°c 41°f
Humidity: 86.9%

METAR: LFCG 020400Z 16005KT 130V190 CAVOK 05/03 Q1016

(Powered by phpweather)
Runway 09 / 27
Dimensions:1303.6 x 36.9m 4277' x 121'ft
Surface:Asphalt
Edge Lights:Medium intensity
Runway 09 [A]Runway 27 [B]
Heading:092°TH 272°TH
Lat:
Lng:
43° 5' 27.1"N
1° 41' 24.07"E
43° 5' 25.52"N
1° 42' 21.66"E
Google Map
Nearby Airports
4 Castelnaudary Villeneuve 19.0 NM
LFMW NE 36°
4 Puivert 21.9 NM
LFNW SE 124°
(U) La Montagne Noire 26.4 NM
LFMG NNE 33°
(U) Moussoulens 29.3 NM
LF12 ENE 62°
(U) Revel Montgey 30.5 NM
LFIR NNE 27°
(C) Antichan 30.6 NM
LFCG (WX) W 259°
(C) Salvaza 31.8 NM
LFMK (WX) ENE 74°
VFR Chart
Flight Planning at SkyVector.com